Time;durP1;ratioP1;P1;durP2;ratioP2;P2;SDS_P1;SDS_P2;PMS_P1;PMS_P2;Temp;Humidity;BMP_temperature;BMP_pressure;BME280_temperature;BME280_humidity;BME280_pressure;Samples;Min_cycle;Max_cycle;Signal;HPM_P1;HPM_P2
2023/08/04 00:01:51;;;;;;;5.00;2.60;;;16.40;99.90;;;;;;4906309;29;20464;-85
2023/08/04 00:04:16;;;;;;;6.57;2.80;;;16.30;99.90;;;;;;4898047;29;20112;-85
2023/08/04 00:06:42;;;;;;;3.15;2.10;;;16.30;99.90;;;;;;4898388;29;20039;-85
2023/08/04 00:09:08;;;;;;;3.40;2.38;;;16.30;99.90;;;;;;4898734;29;20466;-86
2023/08/04 00:11:34;;;;;;;2.90;2.30;;;16.30;99.90;;;;;;4898008;29;20047;-86
2023/08/04 00:14:00;;;;;;;6.10;2.60;;;16.30;99.90;;;;;;4897662;29;20477;-87
2023/08/04 00:16:25;;;;;;;7.72;2.58;;;16.30;99.90;;;;;;4898066;29;20024;-86
2023/08/04 00:18:51;;;;;;;4.70;2.67;;;16.30;99.90;;;;;;4899098;29;20027;-85
2023/08/04 00:21:17;;;;;;;3.85;2.40;;;16.30;99.90;;;;;;4898163;29;20453;-86
2023/08/04 00:23:43;;;;;;;4.93;2.85;;;16.30;99.90;;;;;;4898409;29;20529;-86
2023/08/04 00:26:08;;;;;;;5.72;2.53;;;16.30;99.90;;;;;;4928538;29;20061;-84
2023/08/04 00:28:34;;;;;;;4.35;2.47;;;16.30;99.90;;;;;;4934380;23;20043;-88
2023/08/04 00:30:59;;;;;;;6.43;2.55;;;16.30;99.90;;;;;;4956036;28;20027;-87
2023/08/04 00:33:25;;;;;;;6.95;3.30;;;16.20;99.90;;;;;;4954830;28;20034;-86
2023/08/04 00:35:51;;;;;;;5.18;2.85;;;16.20;99.90;;;;;;4957138;28;20114;-88
2023/08/04 00:38:17;;;;;;;4.60;2.38;;;16.20;99.90;;;;;;4950285;28;20028;-88
2023/08/04 00:40:42;;;;;;;8.50;2.58;;;16.20;99.90;;;;;;4935145;28;20031;-89
2023/08/04 00:43:08;;;;;;;5.03;2.53;;;16.30;99.90;;;;;;4935384;29;20027;-88
2023/08/04 00:45:35;;;;;;;8.32;2.90;;;16.30;99.90;;;;;;4936338;29;20030;-89
2023/08/04 00:48:01;;;;;;;5.25;2.72;;;16.30;99.90;;;;;;4935518;28;20075;-89
2023/08/04 00:50:29;;;;;;;4.97;2.50;;;16.30;99.90;;;;;;4935983;29;20019;-91
2023/08/04 00:52:55;;;;;;;5.43;3.10;;;16.30;99.90;;;;;;4934741;29;20075;-88
2023/08/04 00:55:21;;;;;;;10.23;2.80;;;16.30;99.90;;;;;;4941273;29;20032;-88
2023/08/04 00:57:47;;;;;;;9.07;2.60;;;16.30;99.90;;;;;;4937070;28;20022;-88
2023/08/04 01:00:13;;;;;;;7.72;2.80;;;16.30;99.90;;;;;;4936358;29;20028;-90
2023/08/04 01:02:39;;;;;;;4.35;2.58;;;16.30;99.90;;;;;;4941539;29;20523;-89
2023/08/04 01:05:05;;;;;;;4.78;3.10;;;16.30;99.90;;;;;;4936743;29;20087;-89
2023/08/04 01:07:51;;;;;;;4.10;2.60;;;16.30;99.90;;;;;;4942476;28;20038;-89
2023/08/04 01:10:38;;;;;;;5.90;2.75;;;16.20;99.90;;;;;;4935837;29;20480;-87
2023/08/04 01:13:06;;;;;;;3.85;2.67;;;16.20;99.90;;;;;;4943458;29;20054;-86
2023/08/04 01:15:32;;;;;;;4.30;2.90;;;16.20;99.90;;;;;;4935270;29;20131;-87
2023/08/04 01:17:58;;;;;;;5.38;3.17;;;16.20;99.90;;;;;;4935241;28;20028;-88
2023/08/04 01:20:27;;;;;;;5.43;2.60;;;16.10;99.90;;;;;;4934994;29;20079;-88
2023/08/04 01:22:53;;;;;;;6.85;3.45;;;16.10;99.90;;;;;;4934926;29;20058;-89
2023/08/04 01:25:33;;;;;;;9.95;2.90;;;16.00;99.90;;;;;;4934618;29;20023;-88
2023/08/04 01:28:03;;;;;;;7.50;3.28;;;15.90;99.90;;;;;;4952330;23;20450;-85
2023/08/04 01:30:29;;;;;;;5.75;3.13;;;15.90;99.90;;;;;;4954011;28;20027;-85
2023/08/04 01:32:55;;;;;;;6.38;2.90;;;15.90;99.90;;;;;;4960520;28;20027;-85
2023/08/04 01:35:21;;;;;;;6.38;3.35;;;15.90;99.90;;;;;;4960017;28;20183;-84
2023/08/04 01:37:47;;;;;;;4.55;2.80;;;15.80;99.90;;;;;;4953291;28;20023;-84
2023/08/04 01:40:13;;;;;;;6.55;2.88;;;15.80;99.90;;;;;;4954751;28;20042;-86
2023/08/04 01:42:39;;;;;;;8.23;2.85;;;15.80;99.90;;;;;;4958942;28;20007;-84
2023/08/04 01:45:06;;;;;;;5.70;3.13;;;15.80;99.90;;;;;;4953058;28;20030;-86
2023/08/04 01:47:31;;;;;;;4.10;2.83;;;15.80;99.90;;;;;;4954654;28;20094;-85
2023/08/04 01:49:57;;;;;;;4.20;3.05;;;15.80;99.90;;;;;;4953398;28;20512;-84
2023/08/04 01:52:23;;;;;;;5.93;3.15;;;15.80;99.90;;;;;;4958008;28;20041;-85
2023/08/04 01:54:49;;;;;;;7.35;3.50;;;15.80;99.90;;;;;;4963165;28;20472;-84
2023/08/04 01:57:15;;;;;;;7.20;3.00;;;15.80;99.90;;;;;;4952904;28;20059;-84
2023/08/04 01:59:40;;;;;;;7.78;3.50;;;15.80;99.90;;;;;;4952500;28;20461;-83
2023/08/04 02:02:07;;;;;;;6.78;3.67;;;15.70;99.90;;;;;;4954831;28;20465;-84
2023/08/04 02:04:33;;;;;;;5.30;3.00;;;15.70;99.90;;;;;;4951301;28;20034;-85
2023/08/04 02:06:58;;;;;;;4.40;3.30;;;15.70;99.90;;;;;;4957797;28;20019;-86
2023/08/04 02:09:27;;;;;;;7.70;3.30;;;15.70;99.90;;;;;;4959552;28;20027;-85
2023/08/04 02:11:54;;;;;;;10.00;3.70;;;15.60;99.90;;;;;;4960971;28;20011;-84
2023/08/04 02:14:20;;;;;;;5.95;3.22;;;15.60;99.90;;;;;;4960110;28;20031;-84
2023/08/04 02:16:46;;;;;;;4.57;3.10;;;15.60;99.90;;;;;;4961240;28;20035;-86
2023/08/04 02:19:11;;;;;;;4.60;3.00;;;15.50;99.90;;;;;;4954199;28;20437;-84
2023/08/04 02:21:37;;;;;;;6.03;3.25;;;15.60;99.90;;;;;;4954294;28;20065;-85
2023/08/04 02:24:03;;;;;;;6.40;2.67;;;15.60;99.90;;;;;;4961195;28;20027;-85
2023/08/04 02:26:29;;;;;;;5.93;2.70;;;15.60;99.90;;;;;;4954196;28;20472;-87
2023/08/04 02:28:56;;;;;;;3.63;3.13;;;15.50;99.90;;;;;;4985325;22;20041;-86
2023/08/04 02:31:23;;;;;;;6.57;3.22;;;15.50;99.90;;;;;;4977420;28;20065;-86
2023/08/04 02:33:50;;;;;;;7.20;3.72;;;15.50;99.90;;;;;;4983650;28;20030;-88
2023/08/04 02:36:16;;;;;;;6.30;3.17;;;15.40;99.90;;;;;;4984044;28;20041;-87
2023/08/04 02:38:42;;;;;;;6.20;3.85;;;15.40;99.90;;;;;;4973662;28;20022;-88
2023/08/04 02:41:09;;;;;;;6.55;2.85;;;15.40;99.90;;;;;;4970778;28;20038;-86
2023/08/04 02:43:35;;;;;;;6.80;3.63;;;15.30;99.90;;;;;;4972029;28;20050;-87
2023/08/04 02:46:01;;;;;;;6.20;3.28;;;15.30;99.90;;;;;;4970258;28;20169;-87
2023/08/04 02:48:27;;;;;;;8.73;3.33;;;15.30;99.90;;;;;;4970878;28;20554;-87
2023/08/04 02:51:07;;;;;;;5.00;2.90;;;15.20;99.90;;;;;;4972097;28;20026;-88
2023/08/04 02:53:34;;;;;;;12.52;3.92;;;15.20;99.90;;;;;;4959702;28;20026;-87
2023/08/04 02:56:06;;;;;;;4.53;2.80;;;15.20;99.90;;;;;;4970843;28;20038;-89
2023/08/04 02:58:32;;;;;;;5.53;3.13;;;15.10;99.90;;;;;;4971122;28;20101;-88
2023/08/04 03:00:59;;;;;;;6.32;3.35;;;15.00;99.90;;;;;;4970667;28;20081;-87
2023/08/04 03:03:25;;;;;;;7.32;3.13;;;15.00;99.90;;;;;;4970684;28;20022;-87
2023/08/04 03:05:50;;;;;;;8.07;3.45;;;15.00;99.90;;;;;;4972228;28;20029;-88
2023/08/04 03:08:16;;;;;;;7.28;3.40;;;15.00;99.90;;;;;;4972546;28;20037;-87
2023/08/04 03:10:42;;;;;;;5.70;3.20;;;14.90;99.90;;;;;;4970391;28;20018;-86
2023/08/04 03:13:11;;;;;;;6.82;2.90;;;14.90;99.90;;;;;;4970865;28;20034;-88
2023/08/04 03:15:37;;;;;;;5.05;3.05;;;14.80;99.90;;;;;;4970741;28;20037;-88
2023/08/04 03:18:03;;;;;;;8.45;3.75;;;14.80;99.90;;;;;;4974675;28;20031;-88
2023/08/04 03:20:30;;;;;;;4.53;2.90;;;14.80;99.90;;;;;;4974806;28;20037;-88
2023/08/04 03:22:58;;;;;;;5.60;3.35;;;14.70;99.90;;;;;;4974790;28;20030;-88
2023/08/04 03:25:23;;;;;;;5.55;3.30;;;14.70;99.90;;;;;;4975020;28;20110;-87
2023/08/04 03:27:49;;;;;;;14.68;3.78;;;14.70;99.90;;;;;;4992414;23;20082;-85
2023/08/04 03:30:15;;;;;;;4.97;3.22;;;14.70;99.90;;;;;;4935372;29;20032;-86
2023/08/04 03:32:40;;;;;;;9.48;3.47;;;14.70;99.90;;;;;;4936294;29;20465;-85
2023/08/04 03:35:06;;;;;;;6.90;3.58;;;14.70;99.90;;;;;;4935920;29;20030;-84
2023/08/04 03:37:32;;;;;;;5.00;3.15;;;14.70;99.90;;;;;;4937333;29;20480;-85
2023/08/04 03:39:58;;;;;;;5.78;3.30;;;14.80;99.90;;;;;;4925281;29;20051;-84
2023/08/04 03:42:23;;;;;;;9.02;3.63;;;14.80;99.90;;;;;;4918281;29;20032;-85
2023/08/04 03:44:49;;;;;;;6.40;3.83;;;14.80;99.90;;;;;;4917586;29;20028;-85
2023/08/04 03:47:14;;;;;;;3.85;3.20;;;14.70;99.90;;;;;;4928413;29;20023;-85
2023/08/04 03:49:40;;;;;;;5.30;3.30;;;14.70;99.90;;;;;;4919791;29;20022;-85
2023/08/04 03:52:06;;;;;;;7.10;3.40;;;14.70;99.90;;;;;;4919035;29;20024;-84
2023/08/04 03:54:32;;;;;;;8.18;3.15;;;14.70;99.90;;;;;;4917122;29;20040;-85
2023/08/04 03:56:57;;;;;;;7.15;3.53;;;14.80;99.90;;;;;;4919043;29;20474;-85
2023/08/04 03:59:23;;;;;;;8.68;3.17;;;14.70;99.90;;;;;;4917161;29;20500;-85
2023/08/04 04:01:49;;;;;;;8.88;3.40;;;14.70;99.90;;;;;;4918566;29;20035;-86
2023/08/04 04:04:14;;;;;;;4.03;3.25;;;14.70;99.90;;;;;;4917748;29;20540;-86
2023/08/04 04:06:40;;;;;;;6.05;3.28;;;14.70;99.90;;;;;;4917563;29;20028;-85
2023/08/04 04:09:06;;;;;;;7.20;3.30;;;14.70;99.90;;;;;;4917182;29;20032;-85
2023/08/04 04:11:31;;;;;;;7.13;3.58;;;14.70;99.90;;;;;;4918446;29;20016;-85
2023/08/04 04:13:57;;;;;;;6.28;3.22;;;14.60;99.90;;;;;;4918471;29;20035;-86
2023/08/04 04:16:26;;;;;;;8.48;3.28;;;14.70;99.90;;;;;;4918446;29;20032;-84
2023/08/04 04:18:51;;;;;;;5.10;3.55;;;14.70;99.90;;;;;;4922570;29;20597;-84
2023/08/04 04:21:17;;;;;;;6.38;4.05;;;14.70;99.90;;;;;;4917362;29;20035;-84
2023/08/04 04:23:43;;;;;;;8.57;3.55;;;14.60;99.90;;;;;;4916630;29;20071;-86
2023/08/04 04:26:08;;;;;;;8.20;3.63;;;14.70;99.90;;;;;;4917061;29;20025;-85
2023/08/04 04:28:34;;;;;;;7.15;3.20;;;14.60;99.90;;;;;;4951782;23;20042;-87
2023/08/04 04:31:02;;;;;;;4.65;3.33;;;14.70;99.90;;;;;;4988274;28;20058;-88
2023/08/04 04:33:29;;;;;;;5.30;3.58;;;14.70;99.90;;;;;;4986506;28;20034;-87
2023/08/04 04:35:54;;;;;;;8.00;3.40;;;14.80;99.90;;;;;;4977331;28;20037;-88
2023/08/04 04:38:20;;;;;;;7.53;4.03;;;14.80;99.90;;;;;;4970047;28;20027;-86
2023/08/04 04:41:00;;;;;;;7.00;3.53;;;14.80;99.90;;;;;;4955511;28;20026;-88
2023/08/04 04:43:26;;;;;;;7.07;3.42;;;14.70;99.90;;;;;;4963561;28;20085;-88
2023/08/04 04:45:52;;;;;;;8.55;4.32;;;14.70;99.90;;;;;;4955011;28;20027;-89
2023/08/04 04:48:19;;;;;;;8.93;3.60;;;14.70;99.90;;;;;;4956233;28;20491;-88
2023/08/04 04:50:45;;;;;;;7.47;3.92;;;14.60;99.90;;;;;;4962310;28;20027;-87
2023/08/04 04:53:10;;;;;;;5.22;3.42;;;14.70;99.90;;;;;;4962189;28;20027;-87
2023/08/04 04:55:36;;;;;;;6.78;3.38;;;14.70;99.90;;;;;;4961930;28;20035;-86
2023/08/04 04:58:02;;;;;;;7.68;3.78;;;14.70;99.90;;;;;;4955045;28;20035;-87
2023/08/04 05:00:28;;;;;;;7.65;4.85;;;14.70;99.90;;;;;;4955383;28;20399;-89
2023/08/04 05:02:53;;;;;;;5.25;3.15;;;14.60;99.90;;;;;;4956040;28;20042;-86
2023/08/04 05:05:19;;;;;;;7.30;4.10;;;14.60;99.90;;;;;;4955047;28;20114;-88
2023/08/04 05:07:45;;;;;;;4.90;3.55;;;14.70;99.90;;;;;;4954569;28;20123;-88
2023/08/04 05:10:10;;;;;;;8.02;3.55;;;14.60;99.90;;;;;;4955911;28;20382;-87
2023/08/04 05:12:36;;;;;;;6.00;3.38;;;14.60;99.90;;;;;;4962466;28;20089;-87
2023/08/04 05:15:02;;;;;;;6.43;3.22;;;14.60;99.90;;;;;;4958188;28;20041;-88
2023/08/04 05:17:28;;;;;;;5.75;3.40;;;14.60;99.90;;;;;;4960895;28;20023;-89
2023/08/04 05:19:53;;;;;;;5.88;3.30;;;14.60;99.90;;;;;;4962007;28;20034;-87
2023/08/04 05:22:20;;;;;;;8.88;3.20;;;14.60;99.90;;;;;;4961568;28;20598;-89
2023/08/04 05:24:45;;;;;;;8.15;3.30;;;14.60;99.90;;;;;;4959618;28;20027;-87
2023/08/04 05:27:11;;;;;;;6.63;3.20;;;14.50;99.90;;;;;;4959777;28;20041;-87
2023/08/04 05:29:37;;;;;;;5.72;2.97;;;14.50;99.90;;;;;;4975229;23;20463;-83
2023/08/04 05:32:03;;;;;;;6.57;3.30;;;14.50;99.90;;;;;;4955319;28;20027;-85
2023/08/04 05:34:28;;;;;;;5.03;3.10;;;14.60;99.90;;;;;;4948375;28;20035;-83
2023/08/04 05:36:54;;;;;;;8.70;4.05;;;14.70;99.90;;;;;;4945690;28;20027;-85
2023/08/04 05:39:20;;;;;;;6.40;3.05;;;14.80;99.90;;;;;;4950295;28;20019;-85
2023/08/04 05:41:45;;;;;;;6.40;3.42;;;14.80;99.90;;;;;;4946596;28;20138;-85
2023/08/04 05:44:11;;;;;;;5.75;3.13;;;14.90;99.90;;;;;;4951635;28;20019;-85
2023/08/04 05:46:37;;;;;;;6.75;3.20;;;15.00;99.90;;;;;;4947414;28;20454;-86
2023/08/04 05:49:03;;;;;;;10.23;3.58;;;15.10;99.90;;;;;;4948085;28;20046;-86
2023/08/04 05:51:29;;;;;;;5.28;3.20;;;15.20;99.90;;;;;;4954293;28;20069;-85
2023/08/04 05:53:55;;;;;;;7.25;3.60;;;15.20;99.90;;;;;;4959863;28;20579;-85
2023/08/04 05:56:20;;;;;;;6.47;3.53;;;15.20;99.90;;;;;;4954188;28;20097;-84
2023/08/04 05:58:46;;;;;;;4.57;3.22;;;15.20;99.90;;;;;;4952690;28;20023;-84
2023/08/04 06:01:12;;;;;;;7.80;3.75;;;15.30;99.90;;;;;;4952975;28;20086;-85
2023/08/04 06:03:37;;;;;;;5.70;3.50;;;15.40;99.90;;;;;;4950363;28;20023;-84
2023/08/04 06:06:03;;;;;;;7.22;3.63;;;15.50;99.90;;;;;;4947195;28;20512;-84
2023/08/04 06:08:29;;;;;;;10.93;3.78;;;15.60;99.90;;;;;;4945802;28;20039;-85
2023/08/04 06:10:55;;;;;;;9.20;4.13;;;15.60;99.90;;;;;;4945298;28;20536;-84
2023/08/04 06:13:21;;;;;;;7.38;3.92;;;15.60;99.90;;;;;;4949199;28;20030;-87
2023/08/04 06:15:47;;;;;;;13.48;4.28;;;15.70;99.90;;;;;;4948813;28;20031;-86
2023/08/04 06:18:13;;;;;;;7.65;3.92;;;15.80;99.90;;;;;;4953093;28;20495;-84
2023/08/04 06:20:39;;;;;;;6.85;4.25;;;15.90;99.90;;;;;;4952975;28;20031;-83
2023/08/04 06:23:05;;;;;;;10.15;3.67;;;16.00;99.90;;;;;;4952750;28;20030;-85
2023/08/04 06:25:31;;;;;;;9.68;4.28;;;16.00;99.90;;;;;;4956731;28;20785;-84
2023/08/04 06:27:57;;;;;;;8.35;3.75;;;16.10;99.90;;;;;;4975894;23;20062;-88
2023/08/04 06:30:23;;;;;;;8.93;4.22;;;16.10;99.90;;;;;;4952342;28;20122;-89
2023/08/04 06:32:49;;;;;;;19.52;5.95;;;16.20;99.90;;;;;;4966253;28;20102;-87
2023/08/04 06:35:15;;;;;;;9.63;4.43;;;16.20;99.90;;;;;;4959635;28;20027;-87
2023/08/04 06:37:41;;;;;;;9.35;4.45;;;16.10;99.90;;;;;;4960766;28;20366;-88
2023/08/04 06:40:07;;;;;;;9.30;4.28;;;16.10;99.90;;;;;;4957610;28;20071;-88
2023/08/04 06:42:33;;;;;;;8.80;4.85;;;16.00;99.90;;;;;;4959564;28;20063;-88
2023/08/04 06:44:58;;;;;;;9.98;5.47;;;16.00;99.90;;;;;;4947240;28;20134;-88
2023/08/04 06:47:24;;;;;;;10.98;4.20;;;16.00;99.90;;;;;;4943458;28;20034;-88
2023/08/04 06:49:50;;;;;;;7.63;4.45;;;16.00;99.90;;;;;;4948424;28;20023;-87
2023/08/04 06:52:16;;;;;;;11.32;5.10;;;16.00;99.90;;;;;;4951545;28;20024;-87
2023/08/04 06:54:41;;;;;;;8.77;4.75;;;16.00;99.90;;;;;;4960287;28;20089;-86
2023/08/04 06:57:07;;;;;;;7.93;4.55;;;16.00;99.90;;;;;;4959140;28;20079;-87
2023/08/04 06:59:33;;;;;;;7.32;4.70;;;15.90;99.90;;;;;;4955880;28;20553;-87
2023/08/04 07:01:59;;;;;;;8.95;4.97;;;16.00;99.90;;;;;;4952279;28;20118;-86
2023/08/04 07:04:25;;;;;;;12.48;5.65;;;16.20;99.90;;;;;;4950408;28;20496;-88
2023/08/04 07:06:50;;;;;;;10.73;4.85;;;16.00;99.90;;;;;;4958572;28;20055;-87
2023/08/04 07:09:16;;;;;;;9.15;5.00;;;16.20;99.90;;;;;;4952527;28;20027;-90
2023/08/04 07:11:42;;;;;;;10.30;4.88;;;16.30;99.90;;;;;;4950254;28;20025;-87
2023/08/04 07:14:07;;;;;;;8.90;4.70;;;16.40;99.90;;;;;;4960077;28;20024;-87
2023/08/04 07:16:34;;;;;;;11.20;4.97;;;16.40;99.90;;;;;;4959402;28;20063;-87
2023/08/04 07:19:00;;;;;;;6.57;4.47;;;16.50;99.90;;;;;;4958961;28;20153;-90
2023/08/04 07:21:25;;;;;;;12.07;4.75;;;16.50;99.90;;;;;;4962400;28;20156;-91
2023/08/04 07:23:51;;;;;;;8.98;4.43;;;16.40;99.90;;;;;;4960808;28;20027;-88
2023/08/04 07:26:16;;;;;;;10.88;5.10;;;16.50;99.90;;;;;;4960569;28;20027;-89
2023/08/04 07:28:42;;;;;;;10.38;4.40;;;16.60;99.90;;;;;;4941451;23;1188460;-84
2023/08/04 07:31:09;;;;;;;7.32;4.90;;;16.70;99.90;;;;;;4970487;28;20047;-86
2023/08/04 07:33:38;;;;;;;8.60;4.65;;;16.80;99.90;;;;;;4972095;28;20022;-84
2023/08/04 07:36:04;;;;;;;10.15;4.82;;;16.90;99.90;;;;;;4971751;28;20031;-88
2023/08/04 07:38:30;;;;;;;8.20;5.13;;;17.00;99.90;;;;;;4966608;28;20531;-85
2023/08/04 07:40:57;;;;;;;11.77;5.15;;;17.00;99.90;;;;;;4952379;28;20114;-86
2023/08/04 07:43:23;;;;;;;9.10;4.78;;;17.00;99.90;;;;;;4952598;28;20105;-84
2023/08/04 07:45:49;;;;;;;8.27;4.40;;;17.00;99.90;;;;;;4951632;28;20024;-85
2023/08/04 07:48:15;;;;;;;6.20;4.15;;;17.10;99.90;;;;;;4952842;28;20028;-83
2023/08/04 07:50:43;;;;;;;7.53;4.63;;;17.00;99.90;;;;;;4953102;28;20062;-84
2023/08/04 07:53:09;;;;;;;11.25;4.65;;;17.10;99.90;;;;;;4951738;28;20019;-84
2023/08/04 07:55:36;;;;;;;12.30;4.68;;;17.20;99.90;;;;;;4951060;28;20031;-83
2023/08/04 07:58:05;;;;;;;10.25;5.10;;;17.30;99.90;;;;;;4953000;28;20074;-83
2023/08/04 08:00:31;;;;;;;6.85;4.60;;;17.30;99.90;;;;;;4950903;28;20069;-85
2023/08/04 08:02:57;;;;;;;16.08;4.43;;;17.20;99.90;;;;;;4953929;28;20027;-84
2023/08/04 08:05:23;;;;;;;9.48;4.38;;;17.40;99.90;;;;;;4956561;28;20440;-84
2023/08/04 08:07:48;;;;;;;11.93;4.65;;;17.70;99.90;;;;;;4955341;28;20518;-84
2023/08/04 08:10:14;;;;;;;10.75;4.30;;;17.90;99.90;;;;;;4962369;28;20030;-83
2023/08/04 08:12:40;;;;;;;9.60;3.95;;;18.00;99.90;;;;;;4959181;28;20535;-83
2023/08/04 08:15:06;;;;;;;10.57;4.43;;;18.10;99.90;;;;;;4954911;28;20037;-83
2023/08/04 08:17:32;;;;;;;11.60;4.82;;;18.00;99.50;;;;;;4956308;28;20079;-85
2023/08/04 08:19:58;;;;;;;8.52;4.32;;;18.00;99.90;;;;;;4955897;28;20024;-83
2023/08/04 08:22:24;;;;;;;10.77;4.45;;;18.10;99.50;;;;;;4953769;28;20023;-84
2023/08/04 08:24:53;;;;;;;8.05;4.40;;;18.20;99.70;;;;;;4946624;28;20106;-82
2023/08/04 08:27:19;;;;;;;7.72;4.60;;;18.50;99.90;;;;;;4954743;28;20011;-81
2023/08/04 08:29:45;;;;;;;7.78;4.40;;;18.80;99.70;;;;;;4979580;23;20062;-89
2023/08/04 08:32:10;;;;;;;8.80;4.30;;;18.80;98.70;;;;;;4967014;28;20081;-92
2023/08/04 08:34:36;;;;;;;6.57;3.92;;;18.80;98.20;;;;;;4963119;28;20028;-92
2023/08/04 08:37:02;;;;;;;12.00;4.57;;;18.70;98.60;;;;;;4971282;28;20027;-87
2023/08/04 08:39:29;;;;;;;11.20;4.68;;;18.60;98.30;;;;;;4971173;28;20022;-92
2023/08/04 08:41:57;;;;;;;11.07;4.97;;;18.70;98.70;;;;;;4952592;28;20027;-88
2023/08/04 08:44:23;;;;;;;8.45;4.20;;;18.90;98.10;;;;;;4942806;28;20019;-87
2023/08/04 08:46:49;;;;;;;5.60;3.40;;;19.20;97.10;;;;;;4941676;28;20028;-86
2023/08/04 08:49:15;;;;;;;7.53;3.55;;;19.80;95.80;;;;;;4949901;28;20024;-90
2023/08/04 08:51:47;;;;;;;6.95;3.72;;;20.20;94.70;;;;;;4947518;28;20493;-92
2023/08/04 08:54:14;;;;;;;5.47;3.72;;;20.40;94.00;;;;;;4955021;28;20024;-89
2023/08/04 08:56:40;;;;;;;8.07;3.72;;;20.60;93.10;;;;;;4946997;28;20039;-89
2023/08/04 08:59:06;;;;;;;7.90;4.20;;;20.60;93.10;;;;;;4956770;28;20026;-90
2023/08/04 09:01:34;;;;;;;8.40;3.60;;;20.70;93.70;;;;;;4951482;28;20019;-90
2023/08/04 09:04:00;;;;;;;5.32;3.10;;;21.00;93.80;;;;;;4957054;28;20023;-89
2023/08/04 09:06:26;;;;;;;6.75;3.80;;;21.20;92.50;;;;;;4961825;28;20062;-89
2023/08/04 09:08:53;;;;;;;8.63;3.70;;;21.20;93.20;;;;;;4956164;28;20024;-87
2023/08/04 09:11:19;;;;;;;8.45;3.53;;;21.30;90.80;;;;;;4955719;28;20027;-86
2023/08/04 09:13:46;;;;;;;7.00;3.50;;;21.20;91.80;;;;;;4955026;28;20086;-90
2023/08/04 09:16:15;;;;;;;11.50;4.00;;;21.10;92.20;;;;;;4954612;28;20039;-91
2023/08/04 09:18:42;;;;;;;9.60;3.50;;;21.60;92.20;;;;;;4952801;28;20027;-94
2023/08/04 09:21:08;;;;;;;7.57;3.50;;;22.00;89.30;;;;;;4951168;28;20023;-92
2023/08/04 09:23:49;;;;;;;6.93;3.45;;;22.40;90.00;;;;;;4958722;28;20054;-90
2023/08/04 09:26:15;;;;;;;5.80;3.20;;;22.70;87.50;;;;;;4955536;28;20165;-87
2023/08/04 09:28:41;;;;;;;8.20;4.05;;;22.50;84.50;;;;;;4971788;23;20054;-83
2023/08/04 09:31:11;;;;;;;7.50;4.53;;;21.80;88.70;;;;;;4955213;28;20490;-83
2023/08/04 09:33:43;;;;;;;6.60;4.00;;;22.30;87.70;;;;;;4949554;28;20023;-83
2023/08/04 09:36:16;;;;;;;5.68;3.30;;;22.30;88.00;;;;;;4960717;28;20293;-83
2023/08/04 09:38:42;;;;;;;6.93;3.47;;;22.50;85.50;;;;;;4953898;28;20112;-82
2023/08/04 09:41:10;;;;;;;6.22;2.90;;;23.40;87.60;;;;;;4918260;29;20043;-83
2023/08/04 09:43:46;;;;;;;4.72;2.97;;;23.00;81.90;;;;;;4936521;29;20497;-82
2023/08/04 09:46:12;;;;;;;7.15;3.85;;;22.80;81.10;;;;;;4917522;29;20082;-81
2023/08/04 09:48:37;;;;;;;6.15;3.22;;;24.40;80.50;;;;;;4941913;28;20179;-83
2023/08/04 09:51:08;;;;;;;5.20;2.58;;;24.40;74.90;;;;;;4943478;29;20026;-84
2023/08/04 09:53:44;;;;;;;6.68;2.47;;;24.40;73.90;;;;;;4920065;29;20020;-82
2023/08/04 09:56:15;;;;;;;5.40;2.78;;;25.40;74.40;;;;;;4936005;29;20086;-83
2023/08/04 09:58:41;;;;;;;;;;;27.30;71.20;;;;;;4942140;29;20079;-83
2023/08/04 10:01:07;;;;;;;4.38;3.08;;;27.70;65.40;;;;;;4926187;29;20317;-83
2023/08/04 10:03:34;;;;;;;8.50;6.15;;;26.70;66.50;;;;;;4918045;29;20124;-84
2023/08/04 10:06:01;;;;;;;7.80;4.43;;;26.10;69.60;;;;;;4941109;29;20026;-84
2023/08/04 10:08:31;;;;;;;7.15;4.75;;;26.20;69.50;;;;;;4935306;29;20114;-83
2023/08/04 10:10:58;;;;;;;6.87;3.63;;;26.60;68.70;;;;;;4941154;29;20047;-85
2023/08/04 10:13:32;;;;;;;5.97;3.00;;;26.30;65.20;;;;;;4939734;29;20019;-83
2023/08/04 10:16:00;;;;;;;7.35;2.60;;;26.50;67.90;;;;;;4937699;28;20043;-82
2023/08/04 10:18:44;;;;;;;4.00;2.50;;;25.00;69.00;;;;;;4938303;29;20030;-82
2023/08/04 10:21:09;;;;;;;6.32;2.72;;;24.80;70.40;;;;;;4937552;29;20031;-83
2023/08/04 10:23:35;;;;;;;4.13;2.50;;;24.20;71.70;;;;;;4922271;29;20106;-82
2023/08/04 10:26:02;;;;;;;4.35;2.72;;;23.50;73.40;;;;;;4943416;29;20023;-84
2023/08/04 10:28:31;;;;;;;6.82;2.85;;;23.10;76.00;;;;;;4956907;23;20402;-89
2023/08/04 10:31:12;;;;;;;4.13;2.72;;;22.80;77.20;;;;;;4918351;29;20024;-88
2023/08/04 10:33:38;;;;;;;8.73;2.88;;;22.40;80.10;;;;;;4922326;29;20012;-89
2023/08/04 10:36:12;;;;;;;5.45;2.88;;;22.20;80.00;;;;;;4929076;29;20480;-88
2023/08/04 10:38:49;;;;;;;7.88;3.22;;;21.90;82.60;;;;;;4930164;29;20722;-88
2023/08/04 10:41:15;;;;;;;3.38;2.17;;;21.90;83.90;;;;;;4934195;29;20446;-88
2023/08/04 10:43:58;;;;;;;5.10;2.80;;;22.10;83.30;;;;;;4923636;29;20362;-90
2023/08/04 10:46:24;;;;;;;5.25;2.80;;;22.30;84.50;;;;;;4936955;29;20022;-93
2023/08/04 10:48:50;;;;;;;6.32;3.03;;;23.10;81.60;;;;;;4941804;29;20032;-92
2023/08/04 10:51:16;;;;;;;3.20;2.58;;;23.50;79.50;;;;;;4934433;29;20416;-93
2023/08/04 10:53:42;;;;;;;4.93;2.72;;;23.50;77.80;;;;;;4926717;29;20035;-92
2023/08/04 10:56:09;;;;;;;5.43;2.45;;;23.90;77.50;;;;;;4925049;29;20422;-90
2023/08/04 10:58:35;;;;;;;6.53;2.65;;;24.60;74.30;;;;;;4933386;29;20065;-91
2023/08/04 11:01:01;;;;;;;4.72;2.53;;;24.80;74.20;;;;;;4933079;29;20027;-93
2023/08/04 11:03:36;;;;;;;10.00;2.58;;;24.80;71.10;;;;;;4937700;29;20023;-91
2023/08/04 11:06:03;;;;;;;4.55;2.13;;;24.60;73.30;;;;;;4938505;29;20027;-92
2023/08/04 11:08:30;;;;;;;4.63;2.33;;;24.80;74.00;;;;;;4930918;29;20052;-92
2023/08/04 11:10:57;;;;;;;6.35;3.03;;;24.60;72.60;;;;;;4942840;29;20024;-92
2023/08/04 11:13:24;;;;;;;5.25;2.42;;;24.90;69.70;;;;;;4937904;29;20016;-93
2023/08/04 11:15:53;;;;;;;5.32;2.83;;;25.10;73.20;;;;;;4938237;29;20199;-94
2023/08/04 11:18:22;;;;;;;4.80;2.42;;;25.20;69.90;;;;;;4936961;29;20031;-90
2023/08/04 11:20:48;;;;;;;4.95;2.67;;;25.30;71.10;;;;;;4938950;29;20027;-91
2023/08/04 11:23:14;;;;;;;5.30;2.28;;;25.40;70.20;;;;;;4939636;29;20052;-91
2023/08/04 11:25:40;;;;;;;6.22;2.20;;;25.50;68.20;;;;;;4944830;29;20425;-93
2023/08/04 11:30:40;;;;;;;4.05;2.20;;;25.30;66.60;;;;;;4951371;28;20051;-85
2023/08/04 11:33:07;;;;;;;3.95;2.33;;;25.50;67.70;;;;;;4954138;28;20035;-85
2023/08/04 11:35:33;;;;;;;2.97;2.08;;;25.50;65.10;;;;;;4957620;28;20381;-85
2023/08/04 11:38:05;;;;;;;3.38;2.45;;;25.40;65.30;;;;;;4956353;28;20027;-84
2023/08/04 11:40:31;;;;;;;3.25;1.80;;;25.50;63.50;;;;;;4937624;29;20177;-84
2023/08/04 11:42:59;;;;;;;4.70;2.10;;;26.00;65.60;;;;;;4936471;29;20067;-84
2023/08/04 11:45:25;;;;;;;3.58;1.92;;;26.30;64.30;;;;;;4934560;29;20031;-85
2023/08/04 11:47:55;;;;;;;6.03;2.00;;;26.70;61.00;;;;;;4936368;29;20027;-84
2023/08/04 11:50:21;;;;;;;2.70;2.10;;;26.90;60.10;;;;;;4937054;29;20027;-85
2023/08/04 11:52:47;;;;;;;5.60;2.00;;;27.00;59.40;;;;;;4936240;29;20020;-86
2023/08/04 11:55:12;;;;;;;3.15;1.77;;;27.50;58.70;;;;;;4937083;29;20106;-84
2023/08/04 11:57:51;;;;;;;3.55;2.00;;;27.10;58.80;;;;;;4937340;29;20438;-85
2023/08/04 12:00:31;;;;;;;5.18;2.05;;;27.10;57.20;;;;;;4936850;29;20459;-85
2023/08/04 12:03:00;;;;;;;2.60;1.88;;;27.40;59.00;;;;;;4937231;29;20090;-88
2023/08/04 12:05:44;;;;;;;8.02;2.10;;;27.70;57.00;;;;;;4942656;29;20118;-84
2023/08/04 12:08:12;;;;;;;3.50;1.80;;;28.00;58.30;;;;;;4943343;28;20059;-83
2023/08/04 12:10:38;;;;;;;4.40;1.83;;;28.00;53.60;;;;;;4935536;29;20024;-83
2023/08/04 12:13:04;;;;;;;2.95;1.67;;;28.90;55.90;;;;;;4937400;29;20034;-83
2023/08/04 12:15:29;;;;;;;4.43;2.13;;;30.00;53.30;;;;;;4943634;28;20028;-84
2023/08/04 12:17:55;;;;;;;2.67;2.08;;;31.20;49.50;;;;;;4935449;29;20063;-84
2023/08/04 12:20:21;;;;;;;5.18;1.85;;;32.20;48.20;;;;;;4937590;29;20037;-83
2023/08/04 12:22:46;;;;;;;9.82;1.88;;;33.40;45.00;;;;;;4940622;28;20026;-85
2023/08/04 12:25:12;;;;;;;4.25;1.80;;;33.90;45.50;;;;;;4943303;29;20046;-84
2023/08/04 12:27:40;;;;;;;5.18;2.10;;;33.50;40.50;;;;;;4935149;29;20031;-83
2023/08/04 12:30:06;;;;;;;2.55;1.50;;;33.00;40.70;;;;;;4954481;23;20052;-89
2023/08/04 12:32:32;;;;;;;4.40;1.83;;;32.60;42.70;;;;;;4927761;29;20023;-88
2023/08/04 12:34:58;;;;;;;3.85;2.05;;;33.00;43.60;;;;;;4928731;29;20035;-84
2023/08/04 12:37:25;;;;;;;1.70;1.60;;;33.40;42.10;;;;;;4928474;29;20035;-92
2023/08/04 12:39:51;;;;;;;2.97;1.60;;;33.10;41.90;;;;;;4933207;29;20373;-91
2023/08/04 12:42:16;;;;;;;6.47;1.70;;;32.40;42.10;;;;;;4929394;29;20038;-88
2023/08/04 12:44:42;;;;;;;2.88;1.70;;;31.50;43.80;;;;;;4922547;29;20023;-84
2023/08/04 12:47:10;;;;;;;5.07;1.60;;;30.50;45.10;;;;;;4927643;29;20023;-90